createdAt,value
2019-04-07T00:00:54.267Z,35.57
2019-04-07T00:03:23.238Z,34.10
2019-04-07T00:05:52.326Z,33.10
2019-04-07T00:08:21.683Z,36.83
2019-04-07T00:10:50.635Z,35.37
2019-04-07T00:13:19.652Z,37.43
2019-04-07T00:15:48.846Z,31.97
2019-04-07T00:18:18.126Z,33.83
2019-04-07T00:20:47.357Z,34.97
2019-04-07T00:23:16.425Z,39.40
2019-04-07T00:25:45.500Z,34.73
2019-04-07T00:28:14.535Z,32.87
2019-04-07T00:30:43.576Z,38.47
2019-04-07T00:33:12.372Z,36.43
2019-04-07T00:35:41.244Z,34.83
2019-04-07T00:38:11.677Z,34.00
2019-04-07T00:40:40.472Z,35.37
2019-04-07T00:43:09.950Z,39.93
2019-04-07T00:45:38.948Z,37.77
2019-04-07T00:48:07.916Z,37.53
2019-04-07T00:50:36.836Z,37.93
2019-04-07T00:53:05.872Z,37.57
2019-04-07T00:55:35.035Z,33.00
2019-04-07T00:58:03.842Z,35.07
2019-04-07T01:00:34.641Z,32.60
2019-04-07T01:03:04.041Z,38.80
2019-04-07T01:05:40.534Z,39.03
2019-04-07T01:08:07.396Z,35.20
2019-04-07T01:10:36.896Z,34.57
2019-04-07T01:13:06.531Z,33.30
2019-04-07T01:15:35.416Z,38.83
2019-04-07T01:18:04.330Z,30.20
2019-04-07T01:20:33.329Z,32.57
2019-04-07T01:23:02.803Z,34.17
2019-04-07T01:25:31.872Z,32.00
2019-04-07T01:28:00.970Z,37.10
2019-04-07T01:30:29.648Z,30.97
2019-04-07T01:32:58.350Z,34.37
2019-04-07T01:35:27.605Z,37.43
2019-04-07T01:37:56.966Z,38.93
2019-04-07T01:40:25.746Z,33.63
2019-04-07T01:42:56.418Z,36.17
2019-04-07T01:45:40.273Z,35.67
2019-04-07T01:48:29.318Z,36.27
2019-04-07T01:51:03.746Z,33.13
2019-04-07T01:53:49.875Z,34.43
2019-04-07T01:56:40.176Z,36.27
2019-04-07T01:59:13.382Z,32.83
2019-04-07T02:02:02.072Z,41.60
2019-04-07T02:04:32.636Z,35.97
2019-04-07T02:07:18.426Z,32.50
2019-04-07T02:09:49.050Z,34.70
2019-04-07T02:12:19.861Z,48.17
2019-04-07T02:15:04.598Z,37.40
2019-04-07T02:17:37.259Z,38.30
2019-04-07T02:20:13.434Z,30.10
2019-04-07T02:23:00.711Z,33.50
2019-04-07T02:25:43.866Z,38.20
2019-04-07T02:28:17.654Z,37.10
2019-04-07T02:30:54.666Z,43.33
2019-04-07T02:33:25.091Z,33.43
2019-04-07T02:36:13.506Z,36.20
2019-04-07T02:38:39.079Z,36.43
2019-04-07T02:41:26.105Z,40.87
2019-04-07T02:43:59.590Z,35.07
2019-04-07T02:46:29.367Z,35.03
2019-04-07T02:49:08.770Z,36.13
2019-04-07T02:51:45.577Z,36.73
2019-04-07T02:54:22.770Z,39.47
2019-04-07T02:57:11.988Z,33.63
2019-04-07T02:59:43.087Z,42.07
2019-04-07T03:02:17.722Z,40.70
2019-04-07T03:05:05.325Z,35.40
2019-04-07T03:07:53.943Z,41.87
2019-04-07T03:10:27.351Z,34.43
2019-04-07T03:13:14.732Z,39.43
2019-04-07T03:15:46.159Z,44.13
2019-04-07T03:18:35.773Z,33.37
2019-04-07T03:21:19.637Z,35.47
2019-04-07T03:24:11.141Z,45.27
2019-04-07T03:26:51.398Z,38.00
2019-04-07T03:29:22.190Z,41.93
2019-04-07T03:31:56.882Z,38.43
2019-04-07T03:34:35.873Z,42.13
2019-04-07T03:37:34.331Z,42.57
2019-04-07T03:39:57.603Z,39.07
2019-04-07T03:42:46.570Z,39.67
2019-04-07T03:45:22.526Z,40.03
2019-04-07T03:48:08.489Z,44.63
2019-04-07T03:50:42.996Z,46.57
2019-04-07T03:53:32.366Z,35.90
2019-04-07T03:56:13.487Z,43.60
2019-04-07T03:58:59.896Z,42.47
2019-04-07T04:01:33.910Z,43.40
2019-04-07T04:04:09.563Z,45.50
2019-04-07T04:06:56.732Z,44.10
2019-04-07T04:09:30.474Z,43.10
2019-04-07T04:12:03.867Z,44.47
2019-04-07T04:14:37.668Z,48.83
2019-04-07T04:17:06.635Z,51.83
2019-04-07T04:19:36.136Z,47.90
2019-04-07T04:22:05.943Z,39.13
2019-04-07T04:24:35.098Z,47.53
2019-04-07T04:27:04.589Z,38.23
2019-04-07T04:29:33.684Z,40.97
2019-04-07T04:32:03.091Z,42.27
2019-04-07T04:34:32.943Z,43.93
2019-04-07T04:37:02.134Z,41.50
2019-04-07T04:39:31.448Z,41.40
2019-04-07T04:42:00.318Z,45.40
2019-04-07T04:44:29.508Z,42.90
2019-04-07T04:46:58.461Z,36.67
2019-04-07T04:49:27.501Z,40.57
2019-04-07T04:51:57.217Z,36.77
2019-04-07T04:54:29.450Z,39.77
2019-04-07T04:57:00.163Z,39.90
2019-04-07T04:59:32.081Z,40.30
2019-04-07T05:02:03.336Z,35.57
2019-04-07T05:04:32.792Z,38.70
2019-04-07T05:07:01.667Z,45.20
2019-04-07T05:09:43.230Z,39.97
2019-04-07T05:12:04.702Z,37.90
2019-04-07T05:14:32.371Z,40.30
2019-04-07T05:17:01.635Z,34.13
2019-04-07T05:19:31.165Z,38.17
2019-04-07T05:21:59.955Z,40.27
2019-04-07T05:24:28.891Z,37.43
2019-04-07T05:26:58.466Z,41.40
2019-04-07T05:29:27.373Z,37.77
2019-04-07T05:31:56.633Z,36.00
2019-04-07T05:34:25.812Z,37.20
2019-04-07T05:36:54.681Z,38.00
2019-04-07T05:39:24.110Z,41.80
2019-04-07T05:41:53.497Z,38.87
2019-04-07T05:44:23.179Z,36.33
2019-04-07T05:46:52.746Z,38.33
2019-04-07T05:49:22.561Z,38.07
2019-04-07T05:51:52.056Z,37.03
2019-04-07T05:54:20.945Z,37.20
2019-04-07T05:56:50.244Z,35.07
2019-04-07T05:59:19.910Z,35.27
2019-04-07T06:01:51.654Z,38.77
2019-04-07T06:04:19.505Z,35.57
2019-04-07T06:06:51.539Z,33.30
2019-04-07T06:09:20.559Z,33.73
2019-04-07T06:11:49.774Z,36.67
2019-04-07T06:14:19.259Z,38.77
2019-04-07T06:16:52.510Z,32.57
2019-04-07T06:19:19.185Z,36.63
2019-04-07T06:21:48.885Z,40.60
2019-04-07T06:24:21.981Z,36.53
2019-04-07T06:26:50.242Z,38.10
2019-04-07T06:29:19.921Z,39.43
2019-04-07T06:31:49.412Z,38.07
2019-04-07T06:34:18.586Z,42.83
2019-04-07T06:36:51.526Z,37.03
2019-04-07T06:39:19.897Z,32.43
2019-04-07T06:41:48.924Z,38.03
2019-04-07T06:44:20.987Z,36.60
2019-04-07T06:46:59.953Z,38.33
2019-04-07T06:49:38.075Z,37.47
2019-04-07T06:55:19.070Z,35.33
2019-04-07T06:57:49.881Z,42.10
2019-04-07T07:00:25.997Z,36.17
2019-04-07T07:03:06.098Z,37.23
2019-04-07T07:05:41.122Z,37.27
2019-04-07T07:08:11.778Z,36.97
2019-04-07T07:11:00.100Z,35.67
2019-04-07T07:13:34.295Z,35.13
2019-04-07T07:16:11.461Z,36.77
2019-04-07T07:18:44.901Z,34.47
2019-04-07T07:21:24.076Z,37.60
2019-04-07T07:23:51.638Z,38.60
2019-04-07T07:26:21.789Z,39.50
2019-04-07T07:28:51.034Z,38.80
2019-04-07T07:31:22.903Z,33.33
2019-04-07T07:33:50.854Z,33.70
2019-04-07T07:36:21.416Z,38.70
2019-04-07T07:39:00.004Z,32.77
2019-04-07T07:41:22.373Z,35.97
2019-04-07T07:43:51.354Z,34.08
2019-04-07T07:46:21.876Z,36.33
2019-04-07T07:48:51.126Z,32.95
2019-04-07T07:51:20.293Z,33.73
2019-04-07T07:53:49.315Z,31.20
2019-04-07T07:56:18.058Z,30.50
2019-04-07T07:58:47.257Z,31.17
2019-04-07T08:01:17.766Z,36.45
2019-04-07T08:03:46.945Z,30.70
2019-04-07T08:06:16.094Z,34.10
2019-04-07T08:08:47.498Z,31.97
2019-04-07T08:11:17.548Z,29.55
2019-04-07T08:13:46.954Z,29.30
2019-04-07T08:16:16.374Z,28.60
2019-04-07T08:18:46.705Z,27.48
2019-04-07T08:21:18.397Z,26.27
2019-04-07T08:23:47.130Z,26.70
2019-04-07T08:26:15.932Z,30.90
2019-04-07T08:28:45.104Z,26.87
2019-04-07T08:31:17.776Z,33.50
2019-04-07T08:33:45.012Z,29.02
2019-04-07T08:36:14.841Z,29.65
2019-04-07T08:38:43.878Z,29.90
2019-04-07T08:41:15.436Z,29.00
2019-04-07T08:43:43.439Z,27.87
2019-04-07T08:46:12.238Z,24.43
2019-04-07T08:48:41.260Z,24.55
2019-04-07T08:51:10.193Z,28.57
2019-04-07T08:53:38.965Z,27.67
2019-04-07T08:56:08.884Z,24.72
2019-04-07T08:58:39.165Z,24.87
2019-04-07T09:01:08.680Z,23.73
2019-04-07T09:03:37.507Z,23.83
2019-04-07T09:06:06.313Z,24.63
2019-04-07T09:08:37.957Z,21.65
2019-04-07T09:11:22.468Z,20.37
2019-04-07T09:14:00.174Z,24.32
2019-04-07T09:16:40.493Z,29.07
2019-04-07T09:19:18.180Z,26.52
2019-04-07T09:21:51.658Z,22.00
2019-04-07T09:24:36.916Z,22.77
2019-04-07T09:27:23.130Z,28.00
2019-04-07T09:29:59.990Z,29.75
2019-04-07T09:32:48.612Z,27.80
2019-04-07T09:35:36.125Z,29.65
2019-04-07T09:38:16.445Z,32.38
2019-04-07T09:40:50.590Z,30.92
2019-04-07T09:43:35.855Z,29.85
2019-04-07T09:46:21.930Z,29.98
2019-04-07T09:48:55.367Z,31.48
2019-04-07T09:51:42.867Z,32.08
2019-04-07T09:54:28.833Z,27.90
2019-04-07T09:57:05.046Z,30.48
2019-04-07T09:59:40.619Z,29.82
2019-04-07T10:02:11.462Z,30.25
2019-04-07T10:04:51.847Z,33.15
2019-04-07T10:07:22.882Z,36.90
2019-04-07T10:10:10.079Z,27.13
2019-04-07T10:12:46.269Z,29.98
2019-04-07T10:15:17.694Z,30.15
2019-04-07T10:18:00.529Z,30.02
2019-04-07T10:20:43.189Z,29.00
2019-04-07T10:23:32.461Z,26.12
2019-04-07T10:26:19.896Z,26.85
2019-04-07T10:28:57.158Z,32.03
2019-04-07T10:31:33.743Z,29.35
2019-04-07T10:34:11.041Z,26.85
2019-04-07T10:36:55.725Z,29.32
2019-04-07T10:39:41.521Z,25.00
2019-04-07T10:42:21.893Z,28.30
2019-04-07T10:45:01.145Z,29.32
2019-04-07T10:47:38.378Z,28.00
2019-04-07T10:50:27.516Z,28.17
2019-04-07T10:52:58.011Z,24.27
2019-04-07T10:55:30.894Z,25.72
2019-04-07T10:58:01.245Z,21.42
2019-04-07T11:00:49.427Z,29.50
2019-04-07T11:03:19.572Z,24.40
2019-04-07T11:05:59.355Z,27.90
2019-04-07T11:08:38.760Z,21.73
2019-04-07T11:11:12.219Z,24.50
2019-04-07T11:13:49.020Z,22.95
2019-04-07T11:16:22.578Z,26.75
2019-04-07T11:18:56.540Z,25.65
2019-04-07T11:21:27.100Z,23.98
2019-04-07T11:23:57.790Z,25.05
2019-04-07T11:26:42.903Z,27.22
2019-04-07T11:29:13.394Z,21.85
2019-04-07T11:32:00.382Z,28.67
2019-04-07T11:34:36.675Z,25.15
2019-04-07T11:37:09.780Z,22.75
2019-04-07T11:39:46.258Z,21.85
2019-04-07T11:42:25.487Z,15.53
2019-04-07T11:44:58.666Z,19.02
2019-04-07T11:47:45.908Z,23.97
2019-04-07T11:50:26.647Z,22.65
2019-04-07T11:53:11.736Z,19.92
2019-04-07T11:55:52.250Z,16.42
2019-04-07T11:58:39.720Z,16.35
2019-04-07T12:01:14.415Z,16.17
2019-04-07T12:03:49.408Z,16.17
2019-04-07T12:06:36.481Z,16.77
2019-04-07T12:09:28.299Z,19.07
2019-04-07T12:12:15.183Z,14.47
2019-04-07T12:14:51.463Z,16.87
2019-04-07T12:17:26.758Z,16.85
2019-04-07T12:20:08.085Z,17.48
2019-04-07T12:22:46.867Z,17.10
2019-04-07T12:25:19.034Z,19.30
2019-04-07T12:27:52.210Z,17.10
2019-04-07T12:30:26.458Z,16.17
2019-04-07T12:33:00.334Z,18.15
2019-04-07T12:35:36.798Z,18.50
2019-04-07T12:38:10.076Z,15.18
2019-04-07T12:41:14.295Z,19.07
2019-04-07T12:43:45.839Z,17.67
2019-04-07T12:46:15.524Z,17.27
2019-04-07T12:48:46.989Z,25.37
2019-04-07T12:51:33.944Z,22.65
2019-04-07T12:54:23.404Z,18.70
2019-04-07T12:57:02.556Z,15.90
2019-04-07T12:59:47.754Z,21.30
2019-04-07T13:02:29.071Z,16.97
2019-04-07T13:05:05.104Z,16.77
2019-04-07T13:07:34.677Z,19.77
2019-04-07T13:10:08.586Z,16.67
2019-04-07T13:12:48.238Z,19.48
2019-04-07T13:15:32.173Z,22.60
2019-04-07T13:18:05.247Z,19.60
2019-04-07T13:20:53.278Z,18.35
2019-04-07T13:23:23.686Z,20.95
2019-04-07T13:25:57.829Z,17.57
2019-04-07T13:28:41.769Z,16.20
2019-04-07T13:31:30.848Z,17.45
2019-04-07T13:34:17.995Z,16.23
2019-04-07T13:36:53.101Z,16.95
2019-04-07T13:39:24.805Z,18.95
2019-04-07T13:42:05.300Z,18.35
2019-04-07T13:44:41.643Z,17.67
2019-04-07T13:47:18.819Z,20.07
2019-04-07T13:49:50.147Z,16.87
2019-04-07T13:52:27.906Z,20.13
2019-04-07T13:54:59.098Z,22.27
2019-04-07T13:57:39.301Z,19.57
2019-04-07T14:00:16.276Z,20.60
2019-04-07T14:03:05.898Z,19.52
2019-04-07T14:05:43.032Z,22.67
2019-04-07T14:08:19.925Z,17.70
2019-04-07T14:10:53.958Z,15.23
2019-04-07T14:13:39.601Z,22.90
2019-04-07T14:16:09.425Z,19.40
2019-04-07T14:18:42.234Z,21.17
2019-04-07T14:21:20.415Z,17.77
2019-04-07T14:23:57.235Z,19.67
2019-04-07T14:26:31.259Z,23.62
2019-04-07T14:29:02.027Z,14.23
2019-04-07T14:31:47.989Z,19.30
2019-04-07T14:34:36.448Z,17.07
2019-04-07T14:37:22.947Z,16.57
2019-04-07T14:39:59.825Z,28.13
2019-04-07T14:42:39.500Z,20.30
2019-04-07T14:45:12.258Z,24.20
2019-04-07T14:47:43.558Z,23.18
2019-04-07T14:50:21.147Z,17.82
2019-04-07T14:52:51.651Z,20.70
2019-04-07T14:55:32.260Z,16.25
2019-04-07T14:58:04.546Z,22.50
2019-04-07T15:00:50.884Z,17.57
2019-04-07T15:03:20.267Z,23.23
2019-04-07T15:05:56.342Z,22.73
2019-04-07T15:08:42.088Z,21.75
2019-04-07T15:11:21.995Z,17.70
2019-04-07T15:13:51.000Z,18.00
2019-04-07T15:16:20.697Z,21.12
2019-04-07T15:18:51.165Z,17.80
2019-04-07T15:21:21.020Z,18.07
2019-04-07T15:23:50.747Z,16.97
2019-04-07T15:26:22.053Z,18.65
2019-04-07T15:28:51.042Z,15.13
2019-04-07T15:31:20.779Z,18.07
2019-04-07T15:33:50.923Z,21.48
2019-04-07T15:36:19.954Z,18.33
2019-04-07T15:38:57.247Z,30.40
2019-04-07T15:41:26.033Z,14.90
2019-04-07T15:43:55.188Z,21.27
2019-04-07T15:46:24.221Z,21.23
2019-04-07T15:48:55.764Z,18.20
2019-04-07T15:51:23.836Z,17.65
2019-04-07T15:53:53.246Z,19.57
2019-04-07T15:56:22.482Z,20.00
2019-04-07T15:58:51.715Z,16.60
2019-04-07T16:01:21.741Z,30.23
2019-04-07T16:03:53.270Z,23.55
2019-04-07T16:06:21.049Z,18.50
2019-04-07T16:08:49.987Z,18.17
2019-04-07T16:11:19.077Z,23.27
2019-04-07T16:13:47.923Z,20.30
2019-04-07T16:16:17.691Z,24.12
2019-04-07T16:18:46.670Z,19.25
2019-04-07T16:21:16.256Z,25.40
2019-04-07T16:23:49.025Z,20.53
2019-04-07T16:26:15.677Z,17.92
2019-04-07T16:28:46.407Z,24.80
2019-04-07T16:31:16.740Z,18.37
2019-04-07T16:33:48.595Z,16.90
2019-04-07T16:36:18.390Z,22.43
2019-04-07T16:38:47.398Z,21.05
2019-04-07T16:41:16.721Z,17.70
2019-04-07T16:43:45.876Z,18.50
2019-04-07T16:46:20.231Z,23.90
2019-04-07T16:48:45.130Z,22.63
2019-04-07T16:51:13.970Z,20.75
2019-04-07T16:53:43.372Z,18.70
2019-04-07T16:56:13.465Z,18.67
2019-04-07T16:58:43.605Z,18.90
2019-04-07T17:01:13.157Z,22.83
2019-04-07T17:03:43.080Z,35.40
2019-04-07T17:06:12.371Z,27.15
2019-04-07T17:08:41.186Z,33.07
2019-04-07T17:11:12.889Z,29.23
2019-04-07T17:13:42.991Z,27.47
2019-04-07T17:16:13.307Z,28.57
2019-04-07T17:18:44.109Z,30.20
2019-04-07T17:21:15.899Z,30.10
2019-04-07T17:23:45.498Z,24.07
2019-04-07T17:26:15.039Z,27.07
2019-04-07T17:28:46.101Z,22.30
2019-04-07T17:31:14.669Z,26.87
2019-04-07T17:33:43.752Z,20.77
2019-04-07T17:36:15.392Z,27.40
2019-04-07T17:38:59.245Z,18.07
2019-04-07T17:41:28.803Z,20.57
2019-04-07T17:44:18.309Z,24.70
2019-04-07T17:47:04.736Z,23.13
2019-04-07T17:49:35.723Z,26.50
2019-04-07T17:52:22.685Z,26.53
2019-04-07T17:54:55.943Z,19.73
2019-04-07T17:57:26.306Z,19.70
2019-04-07T18:00:00.263Z,19.73
2019-04-07T18:02:32.630Z,26.90
2019-04-07T18:05:06.446Z,22.67
2019-04-07T18:07:48.793Z,23.40
2019-04-07T18:10:26.668Z,30.60
2019-04-07T18:13:15.774Z,26.47
2019-04-07T18:15:49.826Z,25.03
2019-04-07T18:18:31.565Z,23.93
2019-04-07T18:21:04.204Z,27.63
2019-04-07T18:23:45.114Z,38.33
2019-04-07T18:26:35.388Z,33.33
2019-04-07T18:29:17.597Z,32.20
2019-04-07T18:32:05.009Z,28.53
2019-04-07T18:34:39.698Z,36.80
2019-04-07T18:37:13.063Z,27.67
2019-04-07T18:39:52.360Z,30.63
2019-04-07T18:42:22.019Z,30.73
2019-04-07T18:44:59.534Z,33.43
2019-04-07T18:47:45.161Z,34.00
2019-04-07T18:50:22.326Z,36.17
2019-04-07T18:53:10.304Z,31.50
2019-04-07T18:55:40.748Z,32.07
2019-04-07T18:58:26.716Z,34.53
2019-04-07T19:01:13.691Z,28.57
2019-04-07T19:03:56.792Z,33.53
2019-04-07T19:06:47.162Z,31.23
2019-04-07T19:09:34.312Z,32.27
2019-04-07T19:12:14.233Z,32.07
2019-04-07T19:14:48.107Z,36.83
2019-04-07T19:17:17.096Z,36.27
2019-04-07T19:20:06.279Z,29.73
2019-04-07T19:22:39.655Z,37.33
2019-04-07T19:25:27.019Z,34.03
2019-04-07T19:28:14.029Z,36.73
2019-04-07T19:31:02.762Z,35.20
2019-04-07T19:33:39.863Z,36.80
2019-04-07T19:36:12.090Z,33.53
2019-04-07T19:38:43.301Z,33.53
2019-04-07T19:41:36.059Z,27.80
2019-04-07T19:44:17.619Z,32.90
2019-04-07T19:47:01.675Z,28.43
2019-04-07T19:49:51.317Z,31.20
2019-04-07T19:52:36.906Z,27.13
2019-04-07T19:55:17.734Z,29.63
2019-04-07T19:57:54.772Z,31.23
2019-04-07T20:00:27.349Z,37.17
2019-04-07T20:03:08.794Z,30.63
2019-04-07T20:05:38.693Z,32.97
2019-04-07T20:08:11.958Z,31.33
2019-04-07T20:10:58.848Z,28.20
2019-04-07T20:13:36.527Z,34.23
2019-04-07T20:16:04.623Z,41.47
2019-04-07T20:18:58.801Z,40.63
2019-04-07T20:21:49.404Z,43.50
2019-04-07T20:24:38.872Z,34.57
2019-04-07T20:27:15.391Z,47.80
2019-04-07T20:30:02.999Z,30.77
2019-04-07T20:32:34.775Z,32.27
2019-04-07T20:35:12.350Z,40.00
2019-04-07T20:37:48.821Z,36.67
2019-04-07T20:40:22.470Z,43.67
2019-04-07T20:42:53.595Z,36.90
2019-04-07T20:45:24.817Z,39.53
2019-04-07T20:48:10.251Z,42.03
2019-04-07T20:50:56.291Z,44.37
2019-04-07T20:53:43.429Z,44.70
2019-04-07T20:56:23.017Z,43.80
2019-04-07T20:59:00.879Z,45.90
2019-04-07T21:01:35.320Z,40.83
2019-04-07T21:04:06.431Z,50.40
2019-04-07T21:06:49.590Z,34.90
2019-04-07T21:09:33.338Z,36.03
2019-04-07T21:12:21.117Z,33.93
2019-04-07T21:14:51.541Z,36.07
2019-04-07T21:17:25.820Z,40.63
2019-04-07T21:20:12.304Z,42.30
2019-04-07T21:22:44.284Z,36.43
2019-04-07T21:25:15.659Z,40.07
2019-04-07T21:28:03.420Z,38.97
2019-04-07T21:30:44.096Z,39.80
2019-04-07T21:33:15.362Z,42.27
2019-04-07T21:36:04.835Z,39.00
2019-04-07T21:38:34.831Z,43.73
2019-04-07T21:41:24.303Z,43.17
2019-04-07T21:44:11.373Z,46.53
2019-04-07T21:46:58.026Z,43.63
2019-04-07T21:49:32.746Z,48.17
2019-04-07T21:52:03.414Z,49.27
2019-04-07T21:54:38.985Z,43.03
2019-04-07T21:57:21.493Z,44.70
2019-04-07T21:59:59.029Z,45.30
2019-04-07T22:02:30.063Z,48.50
2019-04-07T22:05:03.341Z,46.33
2019-04-07T22:07:39.781Z,52.43
2019-04-07T22:10:10.417Z,50.40
2019-04-07T22:12:40.767Z,55.33
2019-04-07T22:15:12.772Z,51.07
2019-04-07T22:17:41.182Z,52.13
2019-04-07T22:20:10.591Z,50.97
2019-04-07T22:22:39.516Z,50.27
2019-04-07T22:25:09.758Z,49.83
2019-04-07T22:27:39.026Z,55.53
2019-04-07T22:30:11.136Z,55.50
2019-04-07T22:32:40.718Z,53.93
2019-04-07T22:35:10.627Z,54.40
2019-04-07T22:37:39.942Z,52.30
2019-04-07T22:40:17.661Z,50.57
2019-04-07T22:42:47.827Z,53.17
2019-04-07T22:45:17.170Z,50.23
2019-04-07T22:47:46.643Z,48.13
2019-04-07T22:50:17.024Z,52.37
2019-04-07T22:52:49.269Z,46.43
2019-04-07T22:55:16.574Z,52.27
2019-04-07T22:57:45.357Z,49.50
2019-04-07T23:00:22.072Z,46.90
2019-04-07T23:02:50.786Z,56.83
2019-04-07T23:05:19.604Z,55.60
2019-04-07T23:07:48.512Z,51.03
2019-04-07T23:10:17.784Z,51.47
2019-04-07T23:12:46.560Z,49.90
2019-04-07T23:15:16.517Z,48.80
2019-04-07T23:17:45.356Z,57.03
2019-04-07T23:20:15.026Z,46.77
2019-04-07T23:22:44.562Z,55.83
2019-04-07T23:25:13.333Z,49.93
2019-04-07T23:27:42.096Z,53.63
2019-04-07T23:30:11.930Z,49.90
2019-04-07T23:32:41.723Z,49.10
2019-04-07T23:35:10.763Z,53.77
2019-04-07T23:37:39.518Z,54.90
2019-04-07T23:40:08.641Z,52.17
2019-04-07T23:42:38.253Z,52.60
2019-04-07T23:45:08.370Z,46.07
2019-04-07T23:47:39.462Z,54.63
2019-04-07T23:50:09.219Z,57.87
2019-04-07T23:52:39.009Z,57.90
2019-04-07T23:55:07.922Z,60.37
2019-04-07T23:57:36.858Z,62.37
